sensor_id;sensor_type;location;lat;lon;timestamp;P1;durP1;ratioP1;P2;durP2;ratioP2
823;SDS011;373;49.342;8.146;2023-12-22T00:01:55;2.13;;;0.93;;
823;SDS011;373;49.342;8.146;2023-12-22T00:04:21;1.83;;;0.95;;
823;SDS011;373;49.342;8.146;2023-12-22T00:06:48;1.38;;;0.70;;
823;SDS011;373;49.342;8.146;2023-12-22T00:09:18;3.92;;;0.82;;
823;SDS011;373;49.342;8.146;2023-12-22T00:11:45;1.70;;;0.93;;
823;SDS011;373;49.342;8.146;2023-12-22T00:14:13;2.50;;;0.80;;
823;SDS011;373;49.342;8.146;2023-12-22T00:16:40;2.00;;;0.60;;
823;SDS011;373;49.342;8.146;2023-12-22T00:19:07;3.00;;;1.13;;
823;SDS011;373;49.342;8.146;2023-12-22T00:21:34;1.38;;;0.90;;
823;SDS011;373;49.342;8.146;2023-12-22T00:24:01;2.83;;;0.90;;
823;SDS011;373;49.342;8.146;2023-12-22T00:26:29;4.05;;;0.90;;
823;SDS011;373;49.342;8.146;2023-12-22T00:28:56;3.63;;;0.93;;
823;SDS011;373;49.342;8.146;2023-12-22T00:31:23;2.63;;;1.13;;
823;SDS011;373;49.342;8.146;2023-12-22T00:33:50;2.15;;;0.75;;
823;SDS011;373;49.342;8.146;2023-12-22T00:36:17;3.88;;;1.27;;
823;SDS011;373;49.342;8.146;2023-12-22T00:38:48;3.42;;;1.10;;
823;SDS011;373;49.342;8.146;2023-12-22T00:41:15;4.60;;;1.00;;
823;SDS011;373;49.342;8.146;2023-12-22T00:43:43;4.35;;;1.08;;
823;SDS011;373;49.342;8.146;2023-12-22T00:46:10;4.07;;;1.00;;
823;SDS011;373;49.342;8.146;2023-12-22T00:48:37;3.38;;;1.40;;
823;SDS011;373;49.342;8.146;2023-12-22T00:51:05;4.97;;;1.00;;
823;SDS011;373;49.342;8.146;2023-12-22T00:53:32;3.83;;;0.88;;
823;SDS011;373;49.342;8.146;2023-12-22T00:55:59;3.30;;;1.00;;
823;SDS011;373;49.342;8.146;2023-12-22T00:58:28;3.15;;;1.10;;
823;SDS011;373;49.342;8.146;2023-12-22T01:00:56;2.70;;;1.27;;
823;SDS011;373;49.342;8.146;2023-12-22T01:03:23;2.78;;;1.00;;
823;SDS011;373;49.342;8.146;2023-12-22T01:05:50;2.92;;;1.00;;
823;SDS011;373;49.342;8.146;2023-12-22T01:08:17;2.35;;;0.93;;
823;SDS011;373;49.342;8.146;2023-12-22T01:10:46;2.85;;;0.95;;
823;SDS011;373;49.342;8.146;2023-12-22T01:13:13;2.80;;;0.95;;
823;SDS011;373;49.342;8.146;2023-12-22T01:15:40;2.58;;;0.90;;
823;SDS011;373;49.342;8.146;2023-12-22T01:18:10;3.85;;;1.10;;
823;SDS011;373;49.342;8.146;2023-12-22T01:20:37;3.33;;;1.15;;
823;SDS011;373;49.342;8.146;2023-12-22T01:23:04;4.60;;;1.10;;
823;SDS011;373;49.342;8.146;2023-12-22T01:25:31;3.08;;;1.10;;
823;SDS011;373;49.342;8.146;2023-12-22T01:27:58;8.60;;;1.45;;
823;SDS011;373;49.342;8.146;2023-12-22T01:30:25;2.92;;;0.73;;
823;SDS011;373;49.342;8.146;2023-12-22T01:32:52;3.25;;;0.95;;
823;SDS011;373;49.342;8.146;2023-12-22T01:35:20;3.28;;;0.98;;
823;SDS011;373;49.342;8.146;2023-12-22T01:37:47;5.03;;;0.98;;
823;SDS011;373;49.342;8.146;2023-12-22T01:40:14;4.75;;;1.13;;
823;SDS011;373;49.342;8.146;2023-12-22T01:42:41;4.97;;;1.45;;
823;SDS011;373;49.342;8.146;2023-12-22T01:45:08;4.15;;;1.20;;
823;SDS011;373;49.342;8.146;2023-12-22T01:47:36;2.95;;;1.20;;
823;SDS011;373;49.342;8.146;2023-12-22T01:50:03;4.75;;;1.30;;
823;SDS011;373;49.342;8.146;2023-12-22T01:52:32;4.15;;;1.23;;
823;SDS011;373;49.342;8.146;2023-12-22T01:54:59;3.28;;;0.98;;
823;SDS011;373;49.342;8.146;2023-12-22T01:57:27;3.67;;;1.00;;
823;SDS011;373;49.342;8.146;2023-12-22T01:59:55;2.35;;;1.15;;
823;SDS011;373;49.342;8.146;2023-12-22T02:02:23;2.17;;;0.90;;
823;SDS011;373;49.342;8.146;2023-12-22T02:04:50;2.35;;;1.15;;
823;SDS011;373;49.342;8.146;2023-12-22T02:07:17;1.65;;;1.02;;
823;SDS011;373;49.342;8.146;2023-12-22T02:09:46;3.28;;;0.80;;
823;SDS011;373;49.342;8.146;2023-12-22T02:12:13;4.72;;;1.40;;
823;SDS011;373;49.342;8.146;2023-12-22T02:14:40;3.65;;;1.25;;
823;SDS011;373;49.342;8.146;2023-12-22T02:17:11;1.85;;;1.30;;
823;SDS011;373;49.342;8.146;2023-12-22T02:19:47;4.15;;;1.15;;
823;SDS011;373;49.342;8.146;2023-12-22T02:22:15;4.20;;;1.30;;
823;SDS011;373;49.342;8.146;2023-12-22T02:24:43;2.53;;;0.90;;
823;SDS011;373;49.342;8.146;2023-12-22T02:27:14;1.95;;;1.40;;
823;SDS011;373;49.342;8.146;2023-12-22T02:29:50;1.52;;;1.17;;
823;SDS011;373;49.342;8.146;2023-12-22T02:32:22;3.72;;;1.23;;
823;SDS011;373;49.342;8.146;2023-12-22T02:34:54;4.40;;;1.20;;
823;SDS011;373;49.342;8.146;2023-12-22T02:37:22;5.32;;;1.13;;
823;SDS011;373;49.342;8.146;2023-12-22T02:39:51;4.10;;;1.25;;
823;SDS011;373;49.342;8.146;2023-12-22T02:42:20;4.43;;;1.25;;
823;SDS011;373;49.342;8.146;2023-12-22T02:44:55;4.22;;;1.58;;
823;SDS011;373;49.342;8.146;2023-12-22T02:47:23;5.30;;;1.63;;
823;SDS011;373;49.342;8.146;2023-12-22T02:49:50;3.88;;;1.42;;
823;SDS011;373;49.342;8.146;2023-12-22T02:52:17;5.60;;;1.23;;
823;SDS011;373;49.342;8.146;2023-12-22T02:54:44;2.88;;;1.08;;
823;SDS011;373;49.342;8.146;2023-12-22T02:57:13;5.70;;;1.42;;
823;SDS011;373;49.342;8.146;2023-12-22T02:59:41;4.68;;;1.15;;
823;SDS011;373;49.342;8.146;2023-12-22T03:02:07;3.83;;;1.55;;
823;SDS011;373;49.342;8.146;2023-12-22T03:04:34;4.97;;;1.20;;
823;SDS011;373;49.342;8.146;2023-12-22T03:07:01;4.72;;;1.38;;
823;SDS011;373;49.342;8.146;2023-12-22T03:09:28;4.90;;;1.63;;
823;SDS011;373;49.342;8.146;2023-12-22T03:11:55;4.97;;;1.38;;
823;SDS011;373;49.342;8.146;2023-12-22T03:14:28;2.72;;;1.25;;
823;SDS011;373;49.342;8.146;2023-12-22T03:16:55;4.07;;;1.50;;
823;SDS011;373;49.342;8.146;2023-12-22T03:19:22;3.88;;;1.10;;
823;SDS011;373;49.342;8.146;2023-12-22T03:21:49;3.72;;;1.42;;
823;SDS011;373;49.342;8.146;2023-12-22T03:24:16;2.17;;;1.30;;
823;SDS011;373;49.342;8.146;2023-12-22T03:26:44;1.55;;;0.88;;
823;SDS011;373;49.342;8.146;2023-12-22T03:29:11;3.10;;;1.02;;
823;SDS011;373;49.342;8.146;2023-12-22T03:31:40;1.80;;;0.70;;
823;SDS011;373;49.342;8.146;2023-12-22T03:34:07;2.50;;;0.95;;
823;SDS011;373;49.342;8.146;2023-12-22T03:36:34;1.77;;;0.73;;
823;SDS011;373;49.342;8.146;2023-12-22T03:39:01;1.75;;;0.70;;
823;SDS011;373;49.342;8.146;2023-12-22T03:41:29;2.22;;;0.70;;
823;SDS011;373;49.342;8.146;2023-12-22T03:43:56;3.28;;;0.90;;
823;SDS011;373;49.342;8.146;2023-12-22T03:46:23;3.83;;;0.90;;
823;SDS011;373;49.342;8.146;2023-12-22T03:48:52;1.80;;;0.73;;
823;SDS011;373;49.342;8.146;2023-12-22T03:51:19;3.40;;;1.10;;
823;SDS011;373;49.342;8.146;2023-12-22T03:53:46;2.60;;;0.82;;
823;SDS011;373;49.342;8.146;2023-12-22T03:56:13;2.90;;;1.17;;
823;SDS011;373;49.342;8.146;2023-12-22T03:58:40;3.92;;;1.20;;
823;SDS011;373;49.342;8.146;2023-12-22T04:01:07;1.85;;;1.30;;
823;SDS011;373;49.342;8.146;2023-12-22T04:03:34;2.28;;;1.08;;
823;SDS011;373;49.342;8.146;2023-12-22T04:06:03;4.90;;;1.45;;
823;SDS011;373;49.342;8.146;2023-12-22T04:08:30;4.03;;;1.15;;
823;SDS011;373;49.342;8.146;2023-12-22T04:10:57;5.65;;;1.67;;
823;SDS011;373;49.342;8.146;2023-12-22T04:13:24;6.82;;;1.83;;
823;SDS011;373;49.342;8.146;2023-12-22T04:15:51;3.03;;;0.90;;
823;SDS011;373;49.342;8.146;2023-12-22T04:18:18;3.38;;;1.20;;
823;SDS011;373;49.342;8.146;2023-12-22T04:20:45;3.78;;;1.40;;
823;SDS011;373;49.342;8.146;2023-12-22T04:23:16;4.38;;;1.20;;
823;SDS011;373;49.342;8.146;2023-12-22T04:25:43;2.20;;;0.88;;
823;SDS011;373;49.342;8.146;2023-12-22T04:28:10;2.85;;;1.05;;
823;SDS011;373;49.342;8.146;2023-12-22T04:30:37;4.55;;;1.20;;
823;SDS011;373;49.342;8.146;2023-12-22T04:33:04;6.97;;;1.15;;
823;SDS011;373;49.342;8.146;2023-12-22T04:35:31;4.68;;;1.23;;
823;SDS011;373;49.342;8.146;2023-12-22T04:37:58;3.25;;;1.35;;
823;SDS011;373;49.342;8.146;2023-12-22T04:40:26;4.55;;;1.70;;
823;SDS011;373;49.342;8.146;2023-12-22T04:42:54;3.35;;;1.10;;
823;SDS011;373;49.342;8.146;2023-12-22T04:45:21;3.65;;;1.25;;
823;SDS011;373;49.342;8.146;2023-12-22T04:47:48;2.80;;;1.20;;
823;SDS011;373;49.342;8.146;2023-12-22T04:50:15;3.30;;;1.38;;
823;SDS011;373;49.342;8.146;2023-12-22T04:52:42;5.20;;;1.40;;
823;SDS011;373;49.342;8.146;2023-12-22T04:55:09;3.17;;;0.73;;
823;SDS011;373;49.342;8.146;2023-12-22T04:57:37;4.57;;;1.73;;
823;SDS011;373;49.342;8.146;2023-12-22T05:00:05;3.47;;;1.60;;
823;SDS011;373;49.342;8.146;2023-12-22T05:02:33;5.70;;;1.60;;
823;SDS011;373;49.342;8.146;2023-12-22T05:05:00;3.92;;;1.50;;
823;SDS011;373;49.342;8.146;2023-12-22T05:07:28;4.90;;;1.60;;
823;SDS011;373;49.342;8.146;2023-12-22T05:09:55;5.88;;;1.20;;
823;SDS011;373;49.342;8.146;2023-12-22T05:12:22;6.20;;;1.77;;
823;SDS011;373;49.342;8.146;2023-12-22T05:14:51;3.83;;;1.42;;
823;SDS011;373;49.342;8.146;2023-12-22T05:17:18;3.97;;;1.60;;
823;SDS011;373;49.342;8.146;2023-12-22T05:19:45;7.80;;;2.22;;
823;SDS011;373;49.342;8.146;2023-12-22T05:22:12;4.72;;;1.65;;
823;SDS011;373;49.342;8.146;2023-12-22T05:24:39;5.82;;;1.80;;
823;SDS011;373;49.342;8.146;2023-12-22T05:27:06;5.22;;;1.58;;
823;SDS011;373;49.342;8.146;2023-12-22T05:29:33;4.20;;;1.33;;
823;SDS011;373;49.342;8.146;2023-12-22T05:32:02;8.40;;;2.00;;
823;SDS011;373;49.342;8.146;2023-12-22T05:34:29;8.70;;;2.35;;
823;SDS011;373;49.342;8.146;2023-12-22T05:36:57;3.38;;;1.67;;
823;SDS011;373;49.342;8.146;2023-12-22T05:39:24;5.65;;;1.65;;
823;SDS011;373;49.342;8.146;2023-12-22T05:41:51;4.97;;;1.50;;
823;SDS011;373;49.342;8.146;2023-12-22T05:44:18;4.47;;;1.88;;
823;SDS011;373;49.342;8.146;2023-12-22T05:46:45;6.40;;;1.40;;
823;SDS011;373;49.342;8.146;2023-12-22T05:49:13;6.75;;;2.15;;
823;SDS011;373;49.342;8.146;2023-12-22T05:51:40;5.28;;;1.90;;
823;SDS011;373;49.342;8.146;2023-12-22T05:54:07;5.13;;;2.10;;
823;SDS011;373;49.342;8.146;2023-12-22T05:56:35;6.32;;;1.92;;
823;SDS011;373;49.342;8.146;2023-12-22T05:59:02;7.45;;;2.08;;
823;SDS011;373;49.342;8.146;2023-12-22T06:01:29;4.57;;;1.60;;
823;SDS011;373;49.342;8.146;2023-12-22T06:03:56;7.63;;;2.20;;
823;SDS011;373;49.342;8.146;2023-12-22T06:06:25;5.55;;;2.20;;
823;SDS011;373;49.342;8.146;2023-12-22T06:08:53;6.53;;;1.60;;
823;SDS011;373;49.342;8.146;2023-12-22T06:11:20;6.60;;;1.92;;
823;SDS011;373;49.342;8.146;2023-12-22T06:13:48;5.65;;;1.65;;
823;SDS011;373;49.342;8.146;2023-12-22T06:16:15;4.95;;;1.77;;
823;SDS011;373;49.342;8.146;2023-12-22T06:18:43;6.80;;;2.10;;
823;SDS011;373;49.342;8.146;2023-12-22T06:21:11;2.78;;;1.10;;
823;SDS011;373;49.342;8.146;2023-12-22T06:23:39;3.88;;;1.33;;
823;SDS011;373;49.342;8.146;2023-12-22T06:26:09;5.68;;;1.77;;
823;SDS011;373;49.342;8.146;2023-12-22T06:28:37;5.32;;;1.38;;
823;SDS011;373;49.342;8.146;2023-12-22T06:31:05;3.75;;;1.38;;
823;SDS011;373;49.342;8.146;2023-12-22T06:33:32;7.05;;;1.38;;
823;SDS011;373;49.342;8.146;2023-12-22T06:35:59;4.63;;;1.23;;
823;SDS011;373;49.342;8.146;2023-12-22T06:38:26;5.90;;;1.25;;
823;SDS011;373;49.342;8.146;2023-12-22T06:40:55;6.90;;;1.00;;
823;SDS011;373;49.342;8.146;2023-12-22T06:43:22;3.63;;;1.40;;
823;SDS011;373;49.342;8.146;2023-12-22T06:45:50;3.45;;;0.95;;
823;SDS011;373;49.342;8.146;2023-12-22T06:48:20;3.17;;;1.17;;
823;SDS011;373;49.342;8.146;2023-12-22T06:50:47;2.05;;;0.88;;
823;SDS011;373;49.342;8.146;2023-12-22T06:53:14;2.92;;;1.10;;
823;SDS011;373;49.342;8.146;2023-12-22T06:55:41;1.90;;;0.93;;
823;SDS011;373;49.342;8.146;2023-12-22T06:58:09;1.45;;;0.70;;
823;SDS011;373;49.342;8.146;2023-12-22T07:00:36;3.30;;;1.02;;
823;SDS011;373;49.342;8.146;2023-12-22T07:03:04;4.05;;;1.02;;
823;SDS011;373;49.342;8.146;2023-12-22T07:05:33;1.85;;;0.77;;
823;SDS011;373;49.342;8.146;2023-12-22T07:08:04;4.55;;;1.02;;
823;SDS011;373;49.342;8.146;2023-12-22T07:10:32;4.57;;;1.05;;
823;SDS011;373;49.342;8.146;2023-12-22T07:12:59;2.00;;;0.82;;
823;SDS011;373;49.342;8.146;2023-12-22T07:15:27;2.25;;;0.93;;
823;SDS011;373;49.342;8.146;2023-12-22T07:17:54;3.30;;;1.00;;
823;SDS011;373;49.342;8.146;2023-12-22T07:20:21;5.85;;;1.10;;
823;SDS011;373;49.342;8.146;2023-12-22T07:22:48;4.18;;;1.17;;
823;SDS011;373;49.342;8.146;2023-12-22T07:25:16;1.95;;;0.85;;
823;SDS011;373;49.342;8.146;2023-12-22T07:27:45;2.95;;;1.00;;
823;SDS011;373;49.342;8.146;2023-12-22T07:30:15;3.25;;;1.02;;
823;SDS011;373;49.342;8.146;2023-12-22T07:32:44;5.85;;;1.00;;
823;SDS011;373;49.342;8.146;2023-12-22T07:35:14;2.92;;;1.13;;
823;SDS011;373;49.342;8.146;2023-12-22T07:37:43;2.03;;;1.25;;
823;SDS011;373;49.342;8.146;2023-12-22T07:40:13;2.55;;;1.17;;
823;SDS011;373;49.342;8.146;2023-12-22T07:42:42;4.90;;;1.83;;
823;SDS011;373;49.342;8.146;2023-12-22T07:45:09;3.83;;;1.52;;
823;SDS011;373;49.342;8.146;2023-12-22T07:47:40;3.80;;;1.13;;
823;SDS011;373;49.342;8.146;2023-12-22T07:50:08;3.08;;;1.50;;
823;SDS011;373;49.342;8.146;2023-12-22T07:52:35;4.53;;;2.13;;
823;SDS011;373;49.342;8.146;2023-12-22T07:55:05;6.43;;;1.70;;
823;SDS011;373;49.342;8.146;2023-12-22T07:57:33;2.97;;;1.30;;
823;SDS011;373;49.342;8.146;2023-12-22T08:00:00;5.43;;;2.03;;
823;SDS011;373;49.342;8.146;2023-12-22T08:02:37;7.38;;;1.73;;
823;SDS011;373;49.342;8.146;2023-12-22T08:05:04;4.43;;;1.50;;
823;SDS011;373;49.342;8.146;2023-12-22T08:07:33;5.38;;;1.70;;
823;SDS011;373;49.342;8.146;2023-12-22T08:10:00;6.13;;;2.30;;
823;SDS011;373;49.342;8.146;2023-12-22T08:12:28;5.28;;;2.00;;
823;SDS011;373;49.342;8.146;2023-12-22T08:14:57;6.63;;;2.25;;
823;SDS011;373;49.342;8.146;2023-12-22T08:17:25;6.85;;;1.95;;
823;SDS011;373;49.342;8.146;2023-12-22T08:19:52;4.63;;;1.92;;
823;SDS011;373;49.342;8.146;2023-12-22T08:22:19;8.23;;;2.67;;
823;SDS011;373;49.342;8.146;2023-12-22T08:24:49;4.35;;;1.80;;
823;SDS011;373;49.342;8.146;2023-12-22T08:27:16;7.72;;;2.83;;
823;SDS011;373;49.342;8.146;2023-12-22T08:29:43;7.35;;;2.30;;
823;SDS011;373;49.342;8.146;2023-12-22T08:32:10;7.20;;;2.00;;
823;SDS011;373;49.342;8.146;2023-12-22T08:34:37;9.52;;;2.53;;
823;SDS011;373;49.342;8.146;2023-12-22T08:37:03;7.10;;;2.30;;
823;SDS011;373;49.342;8.146;2023-12-22T08:39:30;5.90;;;2.38;;
823;SDS011;373;49.342;8.146;2023-12-22T08:41:59;8.30;;;2.88;;
823;SDS011;373;49.342;8.146;2023-12-22T08:44:26;7.97;;;3.10;;
823;SDS011;373;49.342;8.146;2023-12-22T08:46:53;6.40;;;2.88;;
823;SDS011;373;49.342;8.146;2023-12-22T08:49:20;10.02;;;3.15;;
823;SDS011;373;49.342;8.146;2023-12-22T08:51:47;12.38;;;3.22;;
823;SDS011;373;49.342;8.146;2023-12-22T08:54:14;6.05;;;2.33;;
823;SDS011;373;49.342;8.146;2023-12-22T08:56:41;9.77;;;2.72;;
823;SDS011;373;49.342;8.146;2023-12-22T08:59:10;9.80;;;3.15;;
823;SDS011;373;49.342;8.146;2023-12-22T09:01:37;8.32;;;2.63;;
823;SDS011;373;49.342;8.146;2023-12-22T09:04:06;12.45;;;3.65;;
823;SDS011;373;49.342;8.146;2023-12-22T09:06:33;12.32;;;2.67;;
823;SDS011;373;49.342;8.146;2023-12-22T09:09:00;12.18;;;2.88;;
823;SDS011;373;49.342;8.146;2023-12-22T09:11:28;11.63;;;3.60;;
823;SDS011;373;49.342;8.146;2023-12-22T09:13:56;9.52;;;2.63;;
823;SDS011;373;49.342;8.146;2023-12-22T09:16:24;11.27;;;3.08;;
823;SDS011;373;49.342;8.146;2023-12-22T09:18:51;14.95;;;4.13;;
823;SDS011;373;49.342;8.146;2023-12-22T09:21:19;13.25;;;3.80;;
823;SDS011;373;49.342;8.146;2023-12-22T09:23:46;13.43;;;3.70;;
823;SDS011;373;49.342;8.146;2023-12-22T09:26:13;13.00;;;3.30;;
823;SDS011;373;49.342;8.146;2023-12-22T09:28:40;10.60;;;2.88;;
823;SDS011;373;49.342;8.146;2023-12-22T09:31:07;10.65;;;3.75;;
823;SDS011;373;49.342;8.146;2023-12-22T09:33:36;10.63;;;3.60;;
823;SDS011;373;49.342;8.146;2023-12-22T09:36:05;9.32;;;3.75;;
823;SDS011;373;49.342;8.146;2023-12-22T09:38:32;8.68;;;3.53;;
823;SDS011;373;49.342;8.146;2023-12-22T09:40:59;8.18;;;3.08;;
823;SDS011;373;49.342;8.146;2023-12-22T09:43:27;14.93;;;4.28;;
823;SDS011;373;49.342;8.146;2023-12-22T09:45:54;10.75;;;3.25;;
823;SDS011;373;49.342;8.146;2023-12-22T09:48:23;11.93;;;2.90;;
823;SDS011;373;49.342;8.146;2023-12-22T09:50:54;10.40;;;3.95;;
823;SDS011;373;49.342;8.146;2023-12-22T09:53:22;11.65;;;4.03;;
823;SDS011;373;49.342;8.146;2023-12-22T09:55:50;8.13;;;3.08;;
823;SDS011;373;49.342;8.146;2023-12-22T09:58:19;11.55;;;3.13;;
823;SDS011;373;49.342;8.146;2023-12-22T10:00:47;11.80;;;3.45;;
823;SDS011;373;49.342;8.146;2023-12-22T10:03:16;9.35;;;3.83;;
823;SDS011;373;49.342;8.146;2023-12-22T10:05:45;9.95;;;3.33;;
823;SDS011;373;49.342;8.146;2023-12-22T10:08:14;12.68;;;3.70;;
823;SDS011;373;49.342;8.146;2023-12-22T10:10:42;10.60;;;3.47;;
823;SDS011;373;49.342;8.146;2023-12-22T10:13:09;10.23;;;3.55;;
823;SDS011;373;49.342;8.146;2023-12-22T10:15:38;11.20;;;4.05;;
823;SDS011;373;49.342;8.146;2023-12-22T10:18:07;13.07;;;2.92;;
823;SDS011;373;49.342;8.146;2023-12-22T10:20:35;8.90;;;2.85;;
823;SDS011;373;49.342;8.146;2023-12-22T10:23:02;9.50;;;3.03;;
823;SDS011;373;49.342;8.146;2023-12-22T10:25:31;8.55;;;3.08;;
823;SDS011;373;49.342;8.146;2023-12-22T10:27:58;7.68;;;3.00;;
823;SDS011;373;49.342;8.146;2023-12-22T10:30:25;11.05;;;3.95;;
823;SDS011;373;49.342;8.146;2023-12-22T10:32:54;8.85;;;2.83;;
823;SDS011;373;49.342;8.146;2023-12-22T10:35:21;8.43;;;2.70;;
823;SDS011;373;49.342;8.146;2023-12-22T10:37:49;6.75;;;2.85;;
823;SDS011;373;49.342;8.146;2023-12-22T10:40:17;5.93;;;2.47;;
823;SDS011;373;49.342;8.146;2023-12-22T10:42:47;8.48;;;2.33;;
823;SDS011;373;49.342;8.146;2023-12-22T10:45:15;7.72;;;2.38;;
823;SDS011;373;49.342;8.146;2023-12-22T10:47:44;5.75;;;2.33;;
823;SDS011;373;49.342;8.146;2023-12-22T10:50:11;6.85;;;2.08;;
823;SDS011;373;49.342;8.146;2023-12-22T10:52:39;7.95;;;2.90;;
823;SDS011;373;49.342;8.146;2023-12-22T10:55:06;6.20;;;2.08;;
823;SDS011;373;49.342;8.146;2023-12-22T10:57:34;8.50;;;2.58;;
823;SDS011;373;49.342;8.146;2023-12-22T11:00:05;8.23;;;2.70;;
823;SDS011;373;49.342;8.146;2023-12-22T11:02:34;6.88;;;2.15;;
823;SDS011;373;49.342;8.146;2023-12-22T11:05:02;8.88;;;2.30;;
823;SDS011;373;49.342;8.146;2023-12-22T11:07:32;5.22;;;1.80;;
823;SDS011;373;49.342;8.146;2023-12-22T11:10:02;7.32;;;2.08;;
823;SDS011;373;49.342;8.146;2023-12-22T11:12:31;6.68;;;2.45;;
823;SDS011;373;49.342;8.146;2023-12-22T11:14:59;5.05;;;1.73;;
823;SDS011;373;49.342;8.146;2023-12-22T11:17:29;4.30;;;1.60;;
823;SDS011;373;49.342;8.146;2023-12-22T11:19:58;3.42;;;1.55;;
823;SDS011;373;49.342;8.146;2023-12-22T11:22:26;3.97;;;1.35;;
823;SDS011;373;49.342;8.146;2023-12-22T11:24:53;4.07;;;1.83;;
823;SDS011;373;49.342;8.146;2023-12-22T11:27:22;3.13;;;1.48;;
823;SDS011;373;49.342;8.146;2023-12-22T11:29:52;4.53;;;1.60;;
823;SDS011;373;49.342;8.146;2023-12-22T11:32:19;4.43;;;1.40;;
823;SDS011;373;49.342;8.146;2023-12-22T11:34:48;3.92;;;1.42;;
823;SDS011;373;49.342;8.146;2023-12-22T11:37:15;2.70;;;1.20;;
823;SDS011;373;49.342;8.146;2023-12-22T11:39:42;4.95;;;1.42;;
823;SDS011;373;49.342;8.146;2023-12-22T11:42:11;2.88;;;1.13;;
823;SDS011;373;49.342;8.146;2023-12-22T11:44:41;2.55;;;1.25;;
823;SDS011;373;49.342;8.146;2023-12-22T11:47:09;4.15;;;1.00;;
823;SDS011;373;49.342;8.146;2023-12-22T11:49:38;2.17;;;0.88;;
823;SDS011;373;49.342;8.146;2023-12-22T11:52:16;2.08;;;0.88;;
823;SDS011;373;49.342;8.146;2023-12-22T11:54:45;1.90;;;0.77;;
823;SDS011;373;49.342;8.146;2023-12-22T11:57:29;1.65;;;0.77;;
823;SDS011;373;49.342;8.146;2023-12-22T12:00:01;1.08;;;0.52;;
823;SDS011;373;49.342;8.146;2023-12-22T12:02:37;1.58;;;0.80;;
823;SDS011;373;49.342;8.146;2023-12-22T12:05:06;0.70;;;0.70;;
823;SDS011;373;49.342;8.146;2023-12-22T12:07:42;2.20;;;0.47;;
823;SDS011;373;49.342;8.146;2023-12-22T12:10:36;1.23;;;0.40;;
823;SDS011;373;49.342;8.146;2023-12-22T12:13:16;1.35;;;0.47;;
823;SDS011;373;49.342;8.146;2023-12-22T12:15:49;1.65;;;0.45;;
823;SDS011;373;49.342;8.146;2023-12-22T12:18:18;1.13;;;0.68;;
823;SDS011;373;49.342;8.146;2023-12-22T12:20:48;0.35;;;0.30;;
823;SDS011;373;49.342;8.146;2023-12-22T12:23:16;0.40;;;0.40;;
823;SDS011;373;49.342;8.146;2023-12-22T12:25:43;0.40;;;0.30;;
823;SDS011;373;49.342;8.146;2023-12-22T12:28:10;0.82;;;0.22;;
823;SDS011;373;49.342;8.146;2023-12-22T12:30:39;1.42;;;0.30;;
823;SDS011;373;49.342;8.146;2023-12-22T12:33:07;0.32;;;0.22;;
823;SDS011;373;49.342;8.146;2023-12-22T12:35:35;0.90;;;0.50;;
823;SDS011;373;49.342;8.146;2023-12-22T12:38:02;0.98;;;0.28;;
823;SDS011;373;49.342;8.146;2023-12-22T12:40:31;0.55;;;0.40;;
823;SDS011;373;49.342;8.146;2023-12-22T12:43:00;0.47;;;0.28;;
823;SDS011;373;49.342;8.146;2023-12-22T12:45:27;0.22;;;0.10;;
823;SDS011;373;49.342;8.146;2023-12-22T12:47:55;0.55;;;0.30;;
823;SDS011;373;49.342;8.146;2023-12-22T12:50:23;1.45;;;0.40;;
823;SDS011;373;49.342;8.146;2023-12-22T12:52:51;0.45;;;0.13;;
823;SDS011;373;49.342;8.146;2023-12-22T12:55:19;0.25;;;0.10;;
823;SDS011;373;49.342;8.146;2023-12-22T12:57:49;1.02;;;0.40;;
823;SDS011;373;49.342;8.146;2023-12-22T13:00:16;0.57;;;0.20;;
823;SDS011;373;49.342;8.146;2023-12-22T13:02:50;0.10;;;0.10;;
823;SDS011;373;49.342;8.146;2023-12-22T13:05:20;0.85;;;0.20;;
823;SDS011;373;49.342;8.146;2023-12-22T13:07:48;0.20;;;0.20;;
823;SDS011;373;49.342;8.146;2023-12-22T13:10:21;1.13;;;0.20;;
823;SDS011;373;49.342;8.146;2023-12-22T13:12:50;0.65;;;0.22;;
823;SDS011;373;49.342;8.146;2023-12-22T13:15:19;0.30;;;0.30;;
823;SDS011;373;49.342;8.146;2023-12-22T13:17:46;0.60;;;0.30;;
823;SDS011;373;49.342;8.146;2023-12-22T13:20:13;0.45;;;0.30;;
823;SDS011;373;49.342;8.146;2023-12-22T13:22:41;1.17;;;0.38;;
823;SDS011;373;49.342;8.146;2023-12-22T13:25:08;0.47;;;0.20;;
823;SDS011;373;49.342;8.146;2023-12-22T13:27:43;0.80;;;0.10;;
823;SDS011;373;49.342;8.146;2023-12-22T13:30:13;1.00;;;0.32;;
823;SDS011;373;49.342;8.146;2023-12-22T13:32:40;0.70;;;0.30;;
823;SDS011;373;49.342;8.146;2023-12-22T13:35:07;0.22;;;0.22;;
823;SDS011;373;49.342;8.146;2023-12-22T13:37:40;0.22;;;0.22;;
823;SDS011;373;49.342;8.146;2023-12-22T13:40:08;1.38;;;0.20;;
823;SDS011;373;49.342;8.146;2023-12-22T13:42:36;0.28;;;0.28;;
823;SDS011;373;49.342;8.146;2023-12-22T13:45:04;0.85;;;0.45;;
823;SDS011;373;49.342;8.146;2023-12-22T13:47:40;0.32;;;0.28;;
823;SDS011;373;49.342;8.146;2023-12-22T13:50:14;0.30;;;0.30;;
823;SDS011;373;49.342;8.146;2023-12-22T13:52:41;0.73;;;0.52;;
823;SDS011;373;49.342;8.146;2023-12-22T13:55:10;0.40;;;0.25;;
823;SDS011;373;49.342;8.146;2023-12-22T13:57:38;0.40;;;0.30;;
823;SDS011;373;49.342;8.146;2023-12-22T14:02:55;0.35;;;0.30;;
823;SDS011;373;49.342;8.146;2023-12-22T14:05:23;0.20;;;0.20;;
823;SDS011;373;49.342;8.146;2023-12-22T14:07:50;0.90;;;0.52;;
823;SDS011;373;49.342;8.146;2023-12-22T14:10:17;0.43;;;0.28;;
823;SDS011;373;49.342;8.146;2023-12-22T14:12:44;0.22;;;0.22;;
823;SDS011;373;49.342;8.146;2023-12-22T14:15:11;1.25;;;0.30;;
823;SDS011;373;49.342;8.146;2023-12-22T14:17:38;0.75;;;0.30;;
823;SDS011;373;49.342;8.146;2023-12-22T14:20:09;1.00;;;0.47;;
823;SDS011;373;49.342;8.146;2023-12-22T14:22:36;0.45;;;0.30;;
823;SDS011;373;49.342;8.146;2023-12-22T14:25:04;0.38;;;0.38;;
823;SDS011;373;49.342;8.146;2023-12-22T14:27:31;0.80;;;0.20;;
823;SDS011;373;49.342;8.146;2023-12-22T14:29:58;0.80;;;0.60;;
823;SDS011;373;49.342;8.146;2023-12-22T14:32:25;0.30;;;0.30;;
823;SDS011;373;49.342;8.146;2023-12-22T14:34:55;0.90;;;0.40;;
823;SDS011;373;49.342;8.146;2023-12-22T14:37:23;0.70;;;0.40;;
823;SDS011;373;49.342;8.146;2023-12-22T14:39:51;0.35;;;0.30;;
823;SDS011;373;49.342;8.146;2023-12-22T14:42:18;0.25;;;0.20;;
823;SDS011;373;49.342;8.146;2023-12-22T14:44:45;1.48;;;0.70;;
823;SDS011;373;49.342;8.146;2023-12-22T14:47:12;0.20;;;0.20;;
823;SDS011;373;49.342;8.146;2023-12-22T14:49:39;1.63;;;0.40;;
823;SDS011;373;49.342;8.146;2023-12-22T14:52:06;0.70;;;0.60;;
823;SDS011;373;49.342;8.146;2023-12-22T14:54:34;2.45;;;0.60;;
823;SDS011;373;49.342;8.146;2023-12-22T14:57:01;0.77;;;0.60;;
823;SDS011;373;49.342;8.146;2023-12-22T14:59:31;0.77;;;0.38;;
823;SDS011;373;49.342;8.146;2023-12-22T15:01:58;0.60;;;0.60;;
823;SDS011;373;49.342;8.146;2023-12-22T15:04:25;0.52;;;0.50;;
823;SDS011;373;49.342;8.146;2023-12-22T15:06:52;0.57;;;0.30;;
823;SDS011;373;49.342;8.146;2023-12-22T15:09:19;0.40;;;0.40;;
823;SDS011;373;49.342;8.146;2023-12-22T15:11:47;0.60;;;0.60;;
823;SDS011;373;49.342;8.146;2023-12-22T15:14:16;0.30;;;0.30;;
823;SDS011;373;49.342;8.146;2023-12-22T15:16:43;0.93;;;0.43;;
823;SDS011;373;49.342;8.146;2023-12-22T15:19:12;0.75;;;0.50;;
823;SDS011;373;49.342;8.146;2023-12-22T15:21:39;0.95;;;0.40;;
823;SDS011;373;49.342;8.146;2023-12-22T15:24:07;0.65;;;0.50;;
823;SDS011;373;49.342;8.146;2023-12-22T15:26:34;0.95;;;0.65;;
823;SDS011;373;49.342;8.146;2023-12-22T15:29:03;0.77;;;0.35;;
823;SDS011;373;49.342;8.146;2023-12-22T15:31:30;0.60;;;0.35;;
823;SDS011;373;49.342;8.146;2023-12-22T15:33:59;1.08;;;0.20;;
823;SDS011;373;49.342;8.146;2023-12-22T15:36:27;0.93;;;0.70;;
823;SDS011;373;49.342;8.146;2023-12-22T15:38:54;0.43;;;0.30;;
823;SDS011;373;49.342;8.146;2023-12-22T15:41:21;1.70;;;0.50;;
823;SDS011;373;49.342;8.146;2023-12-22T15:43:48;0.95;;;0.30;;
823;SDS011;373;49.342;8.146;2023-12-22T15:46:16;7.53;;;0.50;;
823;SDS011;373;49.342;8.146;2023-12-22T15:48:43;0.50;;;0.50;;
823;SDS011;373;49.342;8.146;2023-12-22T15:51:12;0.60;;;0.38;;
823;SDS011;373;49.342;8.146;2023-12-22T15:53:39;4.22;;;4.03;;